sensor_id;sensor_type;location;lat;lon;timestamp;P1;durP1;ratioP1;P2;durP2;ratioP2
66970;SDS011;53901;51.466;-2.588;2023-07-02T00:01:33;23.15;;;7.50;;
66970;SDS011;53901;51.466;-2.588;2023-07-02T00:03:58;19.60;;;6.63;;
66970;SDS011;53901;51.466;-2.588;2023-07-02T00:06:23;17.95;;;6.70;;
66970;SDS011;53901;51.466;-2.588;2023-07-02T00:08:50;23.42;;;6.38;;
66970;SDS011;53901;51.466;-2.588;2023-07-02T00:11:15;22.50;;;6.57;;
66970;SDS011;53901;51.466;-2.588;2023-07-02T00:13:41;18.52;;;6.18;;
66970;SDS011;53901;51.466;-2.588;2023-07-02T00:16:06;23.92;;;6.68;;
66970;SDS011;53901;51.466;-2.588;2023-07-02T00:18:32;22.63;;;6.13;;
66970;SDS011;53901;51.466;-2.588;2023-07-02T00:21:00;23.27;;;6.70;;
66970;SDS011;53901;51.466;-2.588;2023-07-02T00:23:27;21.70;;;6.57;;
66970;SDS011;53901;51.466;-2.588;2023-07-02T00:25:53;27.30;;;7.07;;
66970;SDS011;53901;51.466;-2.588;2023-07-02T00:28:18;22.90;;;6.88;;
66970;SDS011;53901;51.466;-2.588;2023-07-02T00:30:43;21.33;;;6.80;;
66970;SDS011;53901;51.466;-2.588;2023-07-02T00:33:09;24.15;;;6.82;;
66970;SDS011;53901;51.466;-2.588;2023-07-02T00:35:34;22.58;;;6.68;;
66970;SDS011;53901;51.466;-2.588;2023-07-02T00:37:59;23.95;;;6.38;;
66970;SDS011;53901;51.466;-2.588;2023-07-02T00:40:26;22.13;;;7.00;;
66970;SDS011;53901;51.466;-2.588;2023-07-02T00:42:52;24.95;;;6.68;;
66970;SDS011;53901;51.466;-2.588;2023-07-02T00:45:17;21.02;;;6.10;;
66970;SDS011;53901;51.466;-2.588;2023-07-02T00:47:43;17.63;;;5.53;;
66970;SDS011;53901;51.466;-2.588;2023-07-02T00:50:09;21.52;;;5.80;;
66970;SDS011;53901;51.466;-2.588;2023-07-02T00:52:35;18.90;;;5.43;;
66970;SDS011;53901;51.466;-2.588;2023-07-02T00:55:00;20.73;;;6.32;;
66970;SDS011;53901;51.466;-2.588;2023-07-02T00:57:26;22.65;;;5.70;;
66970;SDS011;53901;51.466;-2.588;2023-07-02T00:59:54;21.25;;;5.90;;
66970;SDS011;53901;51.466;-2.588;2023-07-02T01:02:21;19.27;;;5.38;;
66970;SDS011;53901;51.466;-2.588;2023-07-02T01:04:50;20.00;;;6.00;;
66970;SDS011;53901;51.466;-2.588;2023-07-02T01:07:17;24.17;;;6.03;;
66970;SDS011;53901;51.466;-2.588;2023-07-02T01:09:42;23.08;;;6.47;;
66970;SDS011;53901;51.466;-2.588;2023-07-02T01:12:08;21.58;;;6.43;;
66970;SDS011;53901;51.466;-2.588;2023-07-02T01:14:41;22.98;;;5.90;;
66970;SDS011;53901;51.466;-2.588;2023-07-02T01:17:09;24.10;;;5.88;;
66970;SDS011;53901;51.466;-2.588;2023-07-02T01:22:19;22.35;;;5.50;;
66970;SDS011;53901;51.466;-2.588;2023-07-02T01:24:46;20.15;;;5.25;;
66970;SDS011;53901;51.466;-2.588;2023-07-02T01:27:15;20.15;;;4.90;;
66970;SDS011;53901;51.466;-2.588;2023-07-02T01:29:41;19.58;;;5.68;;
66970;SDS011;53901;51.466;-2.588;2023-07-02T01:32:07;18.35;;;5.40;;
66970;SDS011;53901;51.466;-2.588;2023-07-02T01:34:33;21.77;;;5.80;;
66970;SDS011;53901;51.466;-2.588;2023-07-02T01:36:59;20.33;;;5.60;;
66970;SDS011;53901;51.466;-2.588;2023-07-02T01:39:24;19.50;;;5.70;;
66970;SDS011;53901;51.466;-2.588;2023-07-02T01:41:50;18.25;;;4.95;;
66970;SDS011;53901;51.466;-2.588;2023-07-02T01:44:17;23.58;;;5.30;;
66970;SDS011;53901;51.466;-2.588;2023-07-02T01:46:43;20.80;;;5.47;;
66970;SDS011;53901;51.466;-2.588;2023-07-02T01:49:09;21.92;;;5.22;;
66970;SDS011;53901;51.466;-2.588;2023-07-02T01:51:34;19.98;;;5.60;;
66970;SDS011;53901;51.466;-2.588;2023-07-02T01:54:00;18.50;;;5.65;;
66970;SDS011;53901;51.466;-2.588;2023-07-02T01:56:25;18.27;;;5.20;;
66970;SDS011;53901;51.466;-2.588;2023-07-02T01:58:51;16.70;;;5.22;;
66970;SDS011;53901;51.466;-2.588;2023-07-02T02:01:16;22.83;;;5.82;;
66970;SDS011;53901;51.466;-2.588;2023-07-02T02:03:42;23.95;;;5.50;;
66970;SDS011;53901;51.466;-2.588;2023-07-02T02:06:07;16.25;;;5.18;;
66970;SDS011;53901;51.466;-2.588;2023-07-02T02:08:33;19.45;;;4.82;;
66970;SDS011;53901;51.466;-2.588;2023-07-02T02:10:59;19.05;;;5.32;;
66970;SDS011;53901;51.466;-2.588;2023-07-02T02:13:25;23.77;;;5.55;;
66970;SDS011;53901;51.466;-2.588;2023-07-02T02:15:51;17.15;;;4.57;;
66970;SDS011;53901;51.466;-2.588;2023-07-02T02:18:16;20.75;;;4.80;;
66970;SDS011;53901;51.466;-2.588;2023-07-02T02:20:41;20.50;;;4.82;;
66970;SDS011;53901;51.466;-2.588;2023-07-02T02:23:07;22.45;;;5.30;;
66970;SDS011;53901;51.466;-2.588;2023-07-02T02:25:32;18.85;;;4.70;;
66970;SDS011;53901;51.466;-2.588;2023-07-02T02:27:58;19.45;;;5.00;;
66970;SDS011;53901;51.466;-2.588;2023-07-02T02:30:23;16.02;;;5.30;;
66970;SDS011;53901;51.466;-2.588;2023-07-02T02:32:49;14.65;;;4.90;;
66970;SDS011;53901;51.466;-2.588;2023-07-02T02:35:14;15.73;;;4.60;;
66970;SDS011;53901;51.466;-2.588;2023-07-02T02:37:40;22.67;;;5.00;;
66970;SDS011;53901;51.466;-2.588;2023-07-02T02:40:06;15.57;;;4.95;;
66970;SDS011;53901;51.466;-2.588;2023-07-02T02:42:34;14.45;;;4.70;;
66970;SDS011;53901;51.466;-2.588;2023-07-02T02:44:59;21.58;;;5.40;;
66970;SDS011;53901;51.466;-2.588;2023-07-02T02:47:25;19.75;;;4.45;;
66970;SDS011;53901;51.466;-2.588;2023-07-02T02:49:50;17.63;;;5.18;;
66970;SDS011;53901;51.466;-2.588;2023-07-02T02:52:15;19.15;;;5.45;;
66970;SDS011;53901;51.466;-2.588;2023-07-02T02:54:41;17.75;;;5.10;;
66970;SDS011;53901;51.466;-2.588;2023-07-02T02:57:06;16.83;;;4.60;;
66970;SDS011;53901;51.466;-2.588;2023-07-02T02:59:32;19.90;;;5.55;;
66970;SDS011;53901;51.466;-2.588;2023-07-02T03:01:57;19.77;;;5.15;;
66970;SDS011;53901;51.466;-2.588;2023-07-02T03:04:22;19.60;;;5.50;;
66970;SDS011;53901;51.466;-2.588;2023-07-02T03:06:51;19.55;;;4.75;;
66970;SDS011;53901;51.466;-2.588;2023-07-02T03:09:17;14.20;;;4.97;;
66970;SDS011;53901;51.466;-2.588;2023-07-02T03:11:43;14.82;;;4.90;;
66970;SDS011;53901;51.466;-2.588;2023-07-02T03:14:08;16.92;;;5.00;;
66970;SDS011;53901;51.466;-2.588;2023-07-02T03:16:34;14.13;;;4.65;;
66970;SDS011;53901;51.466;-2.588;2023-07-02T03:18:59;16.40;;;4.53;;
66970;SDS011;53901;51.466;-2.588;2023-07-02T03:21:24;19.45;;;5.20;;
66970;SDS011;53901;51.466;-2.588;2023-07-02T03:23:50;18.98;;;4.68;;
66970;SDS011;53901;51.466;-2.588;2023-07-02T03:26:15;17.30;;;4.68;;
66970;SDS011;53901;51.466;-2.588;2023-07-02T03:28:41;13.77;;;4.63;;
66970;SDS011;53901;51.466;-2.588;2023-07-02T03:31:06;14.95;;;5.55;;
66970;SDS011;53901;51.466;-2.588;2023-07-02T03:33:32;21.45;;;4.72;;
66970;SDS011;53901;51.466;-2.588;2023-07-02T03:35:57;21.13;;;4.60;;
66970;SDS011;53901;51.466;-2.588;2023-07-02T03:38:23;16.75;;;4.63;;
66970;SDS011;53901;51.466;-2.588;2023-07-02T03:40:49;15.70;;;4.47;;
66970;SDS011;53901;51.466;-2.588;2023-07-02T03:43:14;22.17;;;4.93;;
66970;SDS011;53901;51.466;-2.588;2023-07-02T03:45:39;18.70;;;5.15;;
66970;SDS011;53901;51.466;-2.588;2023-07-02T03:48:05;22.52;;;5.35;;
66970;SDS011;53901;51.466;-2.588;2023-07-02T03:50:30;15.05;;;4.68;;
66970;SDS011;53901;51.466;-2.588;2023-07-02T03:52:56;16.42;;;4.57;;
66970;SDS011;53901;51.466;-2.588;2023-07-02T03:55:21;16.40;;;5.20;;
66970;SDS011;53901;51.466;-2.588;2023-07-02T03:57:47;15.65;;;4.35;;
66970;SDS011;53901;51.466;-2.588;2023-07-02T04:00:12;15.52;;;5.13;;
66970;SDS011;53901;51.466;-2.588;2023-07-02T04:02:38;16.90;;;4.90;;
66970;SDS011;53901;51.466;-2.588;2023-07-02T04:05:03;16.38;;;4.45;;
66970;SDS011;53901;51.466;-2.588;2023-07-02T04:07:29;13.80;;;4.25;;
66970;SDS011;53901;51.466;-2.588;2023-07-02T04:09:55;18.75;;;4.72;;
66970;SDS011;53901;51.466;-2.588;2023-07-02T04:12:20;14.10;;;4.65;;
66970;SDS011;53901;51.466;-2.588;2023-07-02T04:14:46;18.17;;;4.53;;
66970;SDS011;53901;51.466;-2.588;2023-07-02T04:17:11;18.85;;;4.65;;
66970;SDS011;53901;51.466;-2.588;2023-07-02T04:19:36;13.10;;;4.28;;
66970;SDS011;53901;51.466;-2.588;2023-07-02T04:22:02;17.05;;;4.57;;
66970;SDS011;53901;51.466;-2.588;2023-07-02T04:24:27;18.95;;;4.38;;
66970;SDS011;53901;51.466;-2.588;2023-07-02T04:26:53;18.00;;;5.07;;
66970;SDS011;53901;51.466;-2.588;2023-07-02T04:29:18;14.65;;;4.50;;
66970;SDS011;53901;51.466;-2.588;2023-07-02T04:31:44;11.23;;;4.18;;
66970;SDS011;53901;51.466;-2.588;2023-07-02T04:34:09;16.77;;;4.30;;
66970;SDS011;53901;51.466;-2.588;2023-07-02T04:36:34;15.95;;;4.15;;
66970;SDS011;53901;51.466;-2.588;2023-07-02T04:39:00;12.73;;;4.40;;
66970;SDS011;53901;51.466;-2.588;2023-07-02T04:41:26;13.25;;;4.38;;
66970;SDS011;53901;51.466;-2.588;2023-07-02T04:43:52;12.93;;;3.92;;
66970;SDS011;53901;51.466;-2.588;2023-07-02T04:46:17;14.82;;;3.83;;
66970;SDS011;53901;51.466;-2.588;2023-07-02T04:48:43;18.20;;;4.50;;
66970;SDS011;53901;51.466;-2.588;2023-07-02T04:51:08;15.65;;;4.20;;
66970;SDS011;53901;51.466;-2.588;2023-07-02T04:53:34;13.90;;;3.75;;
66970;SDS011;53901;51.466;-2.588;2023-07-02T04:55:59;17.75;;;4.70;;
66970;SDS011;53901;51.466;-2.588;2023-07-02T04:58:26;12.82;;;4.53;;
66970;SDS011;53901;51.466;-2.588;2023-07-02T05:00:52;17.73;;;4.75;;
66970;SDS011;53901;51.466;-2.588;2023-07-02T05:03:17;16.83;;;4.20;;
66970;SDS011;53901;51.466;-2.588;2023-07-02T05:05:43;16.10;;;4.32;;
66970;SDS011;53901;51.466;-2.588;2023-07-02T05:08:08;13.73;;;4.03;;
66970;SDS011;53901;51.466;-2.588;2023-07-02T05:10:33;15.00;;;4.03;;
66970;SDS011;53901;51.466;-2.588;2023-07-02T05:12:59;12.63;;;3.85;;
66970;SDS011;53901;51.466;-2.588;2023-07-02T05:15:24;14.73;;;4.82;;
66970;SDS011;53901;51.466;-2.588;2023-07-02T05:17:51;14.18;;;3.83;;
66970;SDS011;53901;51.466;-2.588;2023-07-02T05:20:16;18.00;;;4.95;;
66970;SDS011;53901;51.466;-2.588;2023-07-02T05:22:41;16.42;;;4.25;;
66970;SDS011;53901;51.466;-2.588;2023-07-02T05:25:07;13.38;;;4.30;;
66970;SDS011;53901;51.466;-2.588;2023-07-02T05:27:32;9.40;;;3.75;;
66970;SDS011;53901;51.466;-2.588;2023-07-02T05:29:58;19.90;;;4.93;;
66970;SDS011;53901;51.466;-2.588;2023-07-02T05:32:23;13.05;;;4.07;;
66970;SDS011;53901;51.466;-2.588;2023-07-02T05:34:49;15.07;;;3.95;;
66970;SDS011;53901;51.466;-2.588;2023-07-02T05:37:14;21.92;;;4.55;;
66970;SDS011;53901;51.466;-2.588;2023-07-02T05:39:40;12.27;;;3.85;;
66970;SDS011;53901;51.466;-2.588;2023-07-02T05:42:05;15.38;;;4.18;;
66970;SDS011;53901;51.466;-2.588;2023-07-02T05:44:30;10.75;;;3.70;;
66970;SDS011;53901;51.466;-2.588;2023-07-02T05:46:56;14.98;;;3.78;;
66970;SDS011;53901;51.466;-2.588;2023-07-02T05:49:21;12.85;;;3.58;;
66970;SDS011;53901;51.466;-2.588;2023-07-02T05:51:46;17.95;;;4.35;;
66970;SDS011;53901;51.466;-2.588;2023-07-02T05:54:12;13.75;;;3.22;;
66970;SDS011;53901;51.466;-2.588;2023-07-02T05:56:38;14.50;;;3.60;;
66970;SDS011;53901;51.466;-2.588;2023-07-02T05:59:03;17.30;;;3.63;;
66970;SDS011;53901;51.466;-2.588;2023-07-02T06:01:29;15.90;;;4.03;;
66970;SDS011;53901;51.466;-2.588;2023-07-02T06:03:54;15.45;;;4.18;;
66970;SDS011;53901;51.466;-2.588;2023-07-02T06:06:21;13.23;;;3.95;;
66970;SDS011;53901;51.466;-2.588;2023-07-02T06:08:47;15.02;;;3.95;;
66970;SDS011;53901;51.466;-2.588;2023-07-02T06:11:13;10.65;;;3.55;;
66970;SDS011;53901;51.466;-2.588;2023-07-02T06:13:38;16.85;;;4.25;;
66970;SDS011;53901;51.466;-2.588;2023-07-02T06:16:03;10.98;;;3.40;;
66970;SDS011;53901;51.466;-2.588;2023-07-02T06:18:29;19.67;;;3.83;;
66970;SDS011;53901;51.466;-2.588;2023-07-02T06:20:54;12.65;;;3.83;;
66970;SDS011;53901;51.466;-2.588;2023-07-02T06:23:20;13.50;;;4.10;;
66970;SDS011;53901;51.466;-2.588;2023-07-02T06:25:45;17.58;;;4.18;;
66970;SDS011;53901;51.466;-2.588;2023-07-02T06:28:11;13.38;;;3.83;;
66970;SDS011;53901;51.466;-2.588;2023-07-02T06:30:36;11.13;;;3.58;;
66970;SDS011;53901;51.466;-2.588;2023-07-02T06:33:01;17.65;;;4.05;;
66970;SDS011;53901;51.466;-2.588;2023-07-02T06:35:27;16.60;;;4.05;;
66970;SDS011;53901;51.466;-2.588;2023-07-02T06:37:52;15.50;;;4.57;;
66970;SDS011;53901;51.466;-2.588;2023-07-02T06:40:18;15.68;;;3.42;;
66970;SDS011;53901;51.466;-2.588;2023-07-02T06:42:43;17.42;;;3.90;;
66970;SDS011;53901;51.466;-2.588;2023-07-02T06:45:08;12.65;;;3.55;;
66970;SDS011;53901;51.466;-2.588;2023-07-02T06:47:34;15.48;;;3.75;;
66970;SDS011;53901;51.466;-2.588;2023-07-02T06:49:59;12.55;;;3.63;;
66970;SDS011;53901;51.466;-2.588;2023-07-02T06:52:24;14.43;;;3.78;;
66970;SDS011;53901;51.466;-2.588;2023-07-02T06:54:50;12.57;;;3.80;;
66970;SDS011;53901;51.466;-2.588;2023-07-02T06:57:15;15.43;;;4.43;;
66970;SDS011;53901;51.466;-2.588;2023-07-02T06:59:41;14.38;;;3.78;;
66970;SDS011;53901;51.466;-2.588;2023-07-02T07:02:06;15.13;;;3.58;;
66970;SDS011;53901;51.466;-2.588;2023-07-02T07:04:31;14.73;;;4.10;;
66970;SDS011;53901;51.466;-2.588;2023-07-02T07:06:57;14.13;;;4.07;;
66970;SDS011;53901;51.466;-2.588;2023-07-02T07:09:22;14.82;;;3.13;;
66970;SDS011;53901;51.466;-2.588;2023-07-02T07:11:48;13.88;;;3.88;;
66970;SDS011;53901;51.466;-2.588;2023-07-02T07:14:13;12.27;;;3.50;;
66970;SDS011;53901;51.466;-2.588;2023-07-02T07:16:39;10.40;;;3.00;;
66970;SDS011;53901;51.466;-2.588;2023-07-02T07:19:04;15.52;;;4.30;;
66970;SDS011;53901;51.466;-2.588;2023-07-02T07:21:30;12.43;;;3.40;;
66970;SDS011;53901;51.466;-2.588;2023-07-02T07:23:55;13.15;;;3.97;;
66970;SDS011;53901;51.466;-2.588;2023-07-02T07:26:21;16.55;;;3.30;;
66970;SDS011;53901;51.466;-2.588;2023-07-02T07:28:46;14.75;;;3.40;;
66970;SDS011;53901;51.466;-2.588;2023-07-02T07:31:11;15.18;;;3.80;;
66970;SDS011;53901;51.466;-2.588;2023-07-02T07:33:37;11.57;;;3.63;;
66970;SDS011;53901;51.466;-2.588;2023-07-02T07:36:02;12.07;;;3.13;;
66970;SDS011;53901;51.466;-2.588;2023-07-02T07:38:28;13.32;;;3.15;;
66970;SDS011;53901;51.466;-2.588;2023-07-02T07:40:53;17.60;;;3.78;;
66970;SDS011;53901;51.466;-2.588;2023-07-02T07:43:18;14.73;;;3.50;;
66970;SDS011;53901;51.466;-2.588;2023-07-02T07:45:44;11.32;;;2.88;;
66970;SDS011;53901;51.466;-2.588;2023-07-02T07:48:09;16.83;;;3.58;;
66970;SDS011;53901;51.466;-2.588;2023-07-02T07:50:35;12.25;;;3.00;;
66970;SDS011;53901;51.466;-2.588;2023-07-02T07:53:00;14.02;;;3.35;;
66970;SDS011;53901;51.466;-2.588;2023-07-02T07:55:25;13.35;;;3.60;;
66970;SDS011;53901;51.466;-2.588;2023-07-02T07:57:51;12.48;;;3.30;;
66970;SDS011;53901;51.466;-2.588;2023-07-02T08:00:16;12.48;;;2.97;;
66970;SDS011;53901;51.466;-2.588;2023-07-02T08:02:45;15.27;;;3.50;;
66970;SDS011;53901;51.466;-2.588;2023-07-02T08:05:14;10.15;;;2.88;;
66970;SDS011;53901;51.466;-2.588;2023-07-02T08:07:39;12.02;;;3.10;;
66970;SDS011;53901;51.466;-2.588;2023-07-02T08:10:08;10.38;;;2.80;;
66970;SDS011;53901;51.466;-2.588;2023-07-02T08:12:34;8.05;;;2.53;;
66970;SDS011;53901;51.466;-2.588;2023-07-02T08:14:59;14.52;;;3.17;;
66970;SDS011;53901;51.466;-2.588;2023-07-02T08:17:25;14.23;;;3.20;;
66970;SDS011;53901;51.466;-2.588;2023-07-02T08:19:50;10.27;;;2.55;;
66970;SDS011;53901;51.466;-2.588;2023-07-02T08:22:16;11.10;;;3.17;;
66970;SDS011;53901;51.466;-2.588;2023-07-02T08:24:41;8.75;;;2.78;;
66970;SDS011;53901;51.466;-2.588;2023-07-02T08:27:07;16.42;;;2.95;;
66970;SDS011;53901;51.466;-2.588;2023-07-02T08:29:32;9.10;;;2.92;;
66970;SDS011;53901;51.466;-2.588;2023-07-02T08:31:58;12.75;;;2.67;;
66970;SDS011;53901;51.466;-2.588;2023-07-02T08:34:23;10.40;;;2.60;;
66970;SDS011;53901;51.466;-2.588;2023-07-02T08:36:49;9.95;;;2.72;;
66970;SDS011;53901;51.466;-2.588;2023-07-02T08:39:15;13.52;;;2.60;;
66970;SDS011;53901;51.466;-2.588;2023-07-02T08:41:44;9.18;;;2.35;;
66970;SDS011;53901;51.466;-2.588;2023-07-02T08:44:10;14.50;;;3.30;;
66970;SDS011;53901;51.466;-2.588;2023-07-02T08:46:37;11.30;;;2.35;;
66970;SDS011;53901;51.466;-2.588;2023-07-02T08:49:04;9.45;;;2.55;;
66970;SDS011;53901;51.466;-2.588;2023-07-02T08:51:29;8.80;;;2.47;;
66970;SDS011;53901;51.466;-2.588;2023-07-02T08:53:55;8.77;;;2.72;;
66970;SDS011;53901;51.466;-2.588;2023-07-02T08:56:20;12.93;;;2.85;;
66970;SDS011;53901;51.466;-2.588;2023-07-02T08:58:46;14.85;;;2.80;;
66970;SDS011;53901;51.466;-2.588;2023-07-02T09:01:12;14.50;;;3.05;;
66970;SDS011;53901;51.466;-2.588;2023-07-02T09:03:39;13.05;;;2.70;;
66970;SDS011;53901;51.466;-2.588;2023-07-02T09:06:06;11.05;;;2.63;;
66970;SDS011;53901;51.466;-2.588;2023-07-02T09:08:32;12.77;;;2.22;;
66970;SDS011;53901;51.466;-2.588;2023-07-02T09:11:07;10.07;;;1.95;;
66970;SDS011;53901;51.466;-2.588;2023-07-02T09:13:46;8.20;;;2.45;;
66970;SDS011;53901;51.466;-2.588;2023-07-02T09:16:20;9.05;;;2.25;;
66970;SDS011;53901;51.466;-2.588;2023-07-02T09:21:27;8.20;;;2.33;;
66970;SDS011;53901;51.466;-2.588;2023-07-02T09:24:11;14.18;;;2.55;;
66970;SDS011;53901;51.466;-2.588;2023-07-02T09:26:47;9.95;;;2.20;;
66970;SDS011;53901;51.466;-2.588;2023-07-02T09:29:18;9.63;;;2.10;;
66970;SDS011;53901;51.466;-2.588;2023-07-02T09:31:47;10.52;;;2.63;;
66970;SDS011;53901;51.466;-2.588;2023-07-02T09:34:12;12.93;;;2.63;;
66970;SDS011;53901;51.466;-2.588;2023-07-02T09:36:39;9.23;;;2.10;;
66970;SDS011;53901;51.466;-2.588;2023-07-02T09:39:11;9.38;;;2.25;;
66970;SDS011;53901;51.466;-2.588;2023-07-02T09:41:38;11.15;;;2.88;;
66970;SDS011;53901;51.466;-2.588;2023-07-02T09:44:05;9.30;;;2.33;;
66970;SDS011;53901;51.466;-2.588;2023-07-02T09:46:32;10.30;;;2.33;;
66970;SDS011;53901;51.466;-2.588;2023-07-02T09:48:58;11.57;;;2.30;;
66970;SDS011;53901;51.466;-2.588;2023-07-02T09:51:24;9.27;;;2.53;;
66970;SDS011;53901;51.466;-2.588;2023-07-02T09:53:51;11.82;;;2.75;;
66970;SDS011;53901;51.466;-2.588;2023-07-02T09:56:16;10.38;;;2.90;;
66970;SDS011;53901;51.466;-2.588;2023-07-02T09:58:44;8.93;;;2.92;;
66970;SDS011;53901;51.466;-2.588;2023-07-02T10:01:09;10.02;;;2.40;;
66970;SDS011;53901;51.466;-2.588;2023-07-02T10:03:35;8.93;;;2.60;;
66970;SDS011;53901;51.466;-2.588;2023-07-02T10:06:04;11.15;;;2.75;;
66970;SDS011;53901;51.466;-2.588;2023-07-02T10:08:32;11.30;;;2.72;;
66970;SDS011;53901;51.466;-2.588;2023-07-02T10:13:36;15.38;;;3.10;;
66970;SDS011;53901;51.466;-2.588;2023-07-02T10:16:05;11.43;;;2.67;;
66970;SDS011;53901;51.466;-2.588;2023-07-02T10:18:31;6.72;;;2.35;;
66970;SDS011;53901;51.466;-2.588;2023-07-02T10:20:57;12.40;;;2.80;;
66970;SDS011;53901;51.466;-2.588;2023-07-02T10:23:33;12.93;;;2.45;;
66970;SDS011;53901;51.466;-2.588;2023-07-02T10:26:09;7.88;;;2.17;;
66970;SDS011;53901;51.466;-2.588;2023-07-02T10:28:55;15.60;;;2.60;;
66970;SDS011;53901;51.466;-2.588;2023-07-02T10:31:22;12.02;;;2.50;;
66970;SDS011;53901;51.466;-2.588;2023-07-02T10:33:47;8.82;;;2.40;;
66970;SDS011;53901;51.466;-2.588;2023-07-02T10:36:22;11.75;;;3.00;;
66970;SDS011;53901;51.466;-2.588;2023-07-02T10:41:28;8.68;;;2.38;;
66970;SDS011;53901;51.466;-2.588;2023-07-02T10:44:04;15.25;;;2.65;;
66970;SDS011;53901;51.466;-2.588;2023-07-02T10:46:33;10.85;;;2.55;;
66970;SDS011;53901;51.466;-2.588;2023-07-02T10:48:59;12.00;;;3.00;;
66970;SDS011;53901;51.466;-2.588;2023-07-02T10:51:25;9.18;;;2.25;;
66970;SDS011;53901;51.466;-2.588;2023-07-02T10:53:59;12.80;;;2.70;;
66970;SDS011;53901;51.466;-2.588;2023-07-02T10:56:26;9.98;;;2.47;;
66970;SDS011;53901;51.466;-2.588;2023-07-02T10:58:55;15.05;;;3.75;;
66970;SDS011;53901;51.466;-2.588;2023-07-02T11:01:24;10.95;;;2.45;;
66970;SDS011;53901;51.466;-2.588;2023-07-02T11:03:57;8.95;;;2.38;;
66970;SDS011;53901;51.466;-2.588;2023-07-02T11:06:27;8.70;;;2.10;;
66970;SDS011;53901;51.466;-2.588;2023-07-02T11:08:53;11.70;;;2.50;;
66970;SDS011;53901;51.466;-2.588;2023-07-02T11:11:22;10.77;;;2.22;;
66970;SDS011;53901;51.466;-2.588;2023-07-02T11:13:49;11.23;;;2.58;;
66970;SDS011;53901;51.466;-2.588;2023-07-02T11:16:23;11.85;;;2.33;;
66970;SDS011;53901;51.466;-2.588;2023-07-02T11:18:54;10.67;;;2.67;;
66970;SDS011;53901;51.466;-2.588;2023-07-02T11:21:31;12.75;;;2.67;;
66970;SDS011;53901;51.466;-2.588;2023-07-02T11:24:03;8.43;;;2.53;;
66970;SDS011;53901;51.466;-2.588;2023-07-02T11:26:38;11.45;;;2.70;;
66970;SDS011;53901;51.466;-2.588;2023-07-02T11:29:06;12.32;;;2.25;;
66970;SDS011;53901;51.466;-2.588;2023-07-02T11:31:35;13.25;;;2.28;;
66970;SDS011;53901;51.466;-2.588;2023-07-02T11:34:00;7.93;;;2.10;;
66970;SDS011;53901;51.466;-2.588;2023-07-02T11:36:26;7.00;;;2.20;;
66970;SDS011;53901;51.466;-2.588;2023-07-02T11:38:52;8.48;;;2.05;;
66970;SDS011;53901;51.466;-2.588;2023-07-02T11:41:19;13.77;;;2.38;;
66970;SDS011;53901;51.466;-2.588;2023-07-02T11:43:45;21.70;;;3.38;;
66970;SDS011;53901;51.466;-2.588;2023-07-02T11:46:10;7.43;;;1.98;;
66970;SDS011;53901;51.466;-2.588;2023-07-02T11:48:36;11.05;;;1.90;;
66970;SDS011;53901;51.466;-2.588;2023-07-02T11:51:01;8.10;;;1.98;;
66970;SDS011;53901;51.466;-2.588;2023-07-02T11:53:27;7.60;;;1.95;;
66970;SDS011;53901;51.466;-2.588;2023-07-02T11:55:52;8.98;;;2.05;;
66970;SDS011;53901;51.466;-2.588;2023-07-02T11:58:17;10.00;;;2.55;;
66970;SDS011;53901;51.466;-2.588;2023-07-02T12:00:43;9.27;;;2.50;;
66970;SDS011;53901;51.466;-2.588;2023-07-02T12:03:08;7.65;;;2.25;;
66970;SDS011;53901;51.466;-2.588;2023-07-02T12:05:34;9.57;;;2.20;;
66970;SDS011;53901;51.466;-2.588;2023-07-02T12:08:01;9.68;;;2.15;;
66970;SDS011;53901;51.466;-2.588;2023-07-02T12:10:26;6.88;;;2.10;;
66970;SDS011;53901;51.466;-2.588;2023-07-02T12:12:52;5.65;;;1.80;;
66970;SDS011;53901;51.466;-2.588;2023-07-02T12:15:17;10.15;;;2.30;;
66970;SDS011;53901;51.466;-2.588;2023-07-02T12:17:43;7.65;;;2.28;;
66970;SDS011;53901;51.466;-2.588;2023-07-02T12:20:08;9.50;;;2.00;;
66970;SDS011;53901;51.466;-2.588;2023-07-02T12:22:34;9.18;;;2.00;;
66970;SDS011;53901;51.466;-2.588;2023-07-02T12:24:59;6.75;;;1.90;;
66970;SDS011;53901;51.466;-2.588;2023-07-02T12:27:25;6.93;;;1.80;;
66970;SDS011;53901;51.466;-2.588;2023-07-02T12:29:52;7.43;;;2.13;;
66970;SDS011;53901;51.466;-2.588;2023-07-02T12:32:17;8.13;;;2.13;;
66970;SDS011;53901;51.466;-2.588;2023-07-02T12:34:42;7.10;;;2.08;;
66970;SDS011;53901;51.466;-2.588;2023-07-02T12:37:08;10.23;;;2.10;;
66970;SDS011;53901;51.466;-2.588;2023-07-02T12:39:33;14.07;;;2.60;;
66970;SDS011;53901;51.466;-2.588;2023-07-02T12:41:59;7.65;;;2.35;;
66970;SDS011;53901;51.466;-2.588;2023-07-02T12:44:25;14.50;;;2.47;;
66970;SDS011;53901;51.466;-2.588;2023-07-02T12:46:50;10.77;;;2.55;;
66970;SDS011;53901;51.466;-2.588;2023-07-02T12:49:16;10.27;;;2.08;;
66970;SDS011;53901;51.466;-2.588;2023-07-02T12:51:41;11.95;;;2.20;;
66970;SDS011;53901;51.466;-2.588;2023-07-02T12:54:07;8.85;;;2.40;;
66970;SDS011;53901;51.466;-2.588;2023-07-02T12:56:32;8.80;;;2.28;;
66970;SDS011;53901;51.466;-2.588;2023-07-02T12:58:57;8.35;;;1.92;;
66970;SDS011;53901;51.466;-2.588;2023-07-02T13:01:23;5.68;;;1.75;;
66970;SDS011;53901;51.466;-2.588;2023-07-02T13:03:49;12.57;;;2.45;;
66970;SDS011;53901;51.466;-2.588;2023-07-02T13:06:15;13.60;;;2.70;;
66970;SDS011;53901;51.466;-2.588;2023-07-02T13:08:41;9.38;;;2.33;;
66970;SDS011;53901;51.466;-2.588;2023-07-02T13:11:07;7.45;;;1.88;;
66970;SDS011;53901;51.466;-2.588;2023-07-02T13:13:32;9.77;;;2.30;;
66970;SDS011;53901;51.466;-2.588;2023-07-02T13:16:00;14.07;;;2.05;;
66970;SDS011;53901;51.466;-2.588;2023-07-02T13:18:26;11.57;;;2.15;;
66970;SDS011;53901;51.466;-2.588;2023-07-02T13:20:51;12.60;;;2.13;;
66970;SDS011;53901;51.466;-2.588;2023-07-02T13:23:17;11.93;;;2.60;;
66970;SDS011;53901;51.466;-2.588;2023-07-02T13:25:42;9.85;;;2.80;;
66970;SDS011;53901;51.466;-2.588;2023-07-02T13:28:07;10.35;;;2.20;;
66970;SDS011;53901;51.466;-2.588;2023-07-02T13:30:33;6.15;;;1.88;;
66970;SDS011;53901;51.466;-2.588;2023-07-02T13:32:58;8.60;;;2.30;;
66970;SDS011;53901;51.466;-2.588;2023-07-02T13:35:24;9.50;;;2.05;;
66970;SDS011;53901;51.466;-2.588;2023-07-02T13:37:49;8.10;;;2.10;;
66970;SDS011;53901;51.466;-2.588;2023-07-02T13:40:14;11.57;;;2.28;;
66970;SDS011;53901;51.466;-2.588;2023-07-02T13:42:41;9.88;;;2.35;;
66970;SDS011;53901;51.466;-2.588;2023-07-02T13:45:07;7.97;;;2.40;;
66970;SDS011;53901;51.466;-2.588;2023-07-02T13:47:34;13.30;;;2.92;;
66970;SDS011;53901;51.466;-2.588;2023-07-02T13:49:59;6.63;;;2.20;;
66970;SDS011;53901;51.466;-2.588;2023-07-02T13:52:25;7.68;;;1.80;;
66970;SDS011;53901;51.466;-2.588;2023-07-02T13:54:50;9.52;;;2.00;;
66970;SDS011;53901;51.466;-2.588;2023-07-02T13:57:16;9.48;;;2.00;;
66970;SDS011;53901;51.466;-2.588;2023-07-02T13:59:41;11.07;;;2.10;;
66970;SDS011;53901;51.466;-2.588;2023-07-02T14:02:06;8.65;;;1.88;;
66970;SDS011;53901;51.466;-2.588;2023-07-02T14:04:33;6.82;;;2.08;;
66970;SDS011;53901;51.466;-2.588;2023-07-02T14:06:58;11.73;;;2.42;;
66970;SDS011;53901;51.466;-2.588;2023-07-02T14:09:23;8.60;;;1.90;;
66970;SDS011;53901;51.466;-2.588;2023-07-02T14:11:49;7.40;;;1.83;;
66970;SDS011;53901;51.466;-2.588;2023-07-02T14:14:14;10.13;;;2.17;;
66970;SDS011;53901;51.466;-2.588;2023-07-02T14:16:40;8.95;;;2.17;;
66970;SDS011;53901;51.466;-2.588;2023-07-02T14:19:05;12.80;;;2.47;;
66970;SDS011;53901;51.466;-2.588;2023-07-02T14:21:31;10.48;;;2.25;;
66970;SDS011;53901;51.466;-2.588;2023-07-02T14:23:57;6.03;;;1.70;;
66970;SDS011;53901;51.466;-2.588;2023-07-02T14:26:23;11.07;;;2.67;;
66970;SDS011;53901;51.466;-2.588;2023-07-02T14:28:48;6.07;;;1.65;;